Time;durP1;ratioP1;P1;durP2;ratioP2;P2;SDS_P1;SDS_P2;PMS_P1;PMS_P2;Temp;Humidity;BMP_temperature;BMP_pressure;BME280_temperature;BME280_humidity;BME280_pressure;Samples;Min_cycle;Max_cycle;Signal;HPM_P1;HPM_P2
2023/03/15 00:01:45;;;;;;;0.75;0.70;;;4.70;99.90;;;;;;5032475;28;20563;-76
2023/03/15 00:04:11;;;;;;;0.98;0.98;;;4.70;99.90;;;;;;5034850;28;20180;-76
2023/03/15 00:06:37;;;;;;;1.20;1.20;;;4.60;99.90;;;;;;5036203;28;20184;-76
2023/03/15 00:09:03;;;;;;;0.85;0.85;;;4.50;99.90;;;;;;5022785;28;20254;-76
2023/03/15 00:11:29;;;;;;;0.75;0.70;;;4.60;99.90;;;;;;5029060;28;20303;-76
2023/03/15 00:13:56;;;;;;;0.85;0.85;;;4.60;99.90;;;;;;5032912;28;20177;-77
2023/03/15 00:16:25;;;;;;;0.80;0.80;;;4.50;99.90;;;;;;5026013;28;20276;-75
2023/03/15 00:18:52;;;;;;;0.70;0.70;;;4.50;99.90;;;;;;5025827;28;20180;-76
2023/03/15 00:21:18;;;;;;;0.88;0.88;;;4.50;99.90;;;;;;5025813;28;20204;-76
2023/03/15 00:23:44;;;;;;;1.02;0.93;;;4.50;99.90;;;;;;5027097;28;20187;-76
2023/03/15 00:26:09;;;;;;;1.15;0.93;;;4.60;99.90;;;;;;5020159;28;20192;-76
2023/03/15 00:28:35;;;;;;;0.80;0.80;;;4.60;99.90;;;;;;5031477;28;20188;-76
2023/03/15 00:31:06;;;;;;;0.80;0.80;;;4.60;99.90;;;;;;5030234;28;20216;-78
2023/03/15 00:33:35;;;;;;;0.82;0.82;;;4.60;99.90;;;;;;5029931;28;20647;-76
2023/03/15 00:36:05;;;;;;;0.90;0.90;;;4.60;99.90;;;;;;5033669;28;20219;-76
2023/03/15 00:38:32;;;;;;;1.05;1.00;;;4.50;99.90;;;;;;5032910;28;20640;-77
2023/03/15 00:41:03;;;;;;;0.90;0.90;;;4.40;99.90;;;;;;5024388;28;20205;-76
2023/03/15 00:43:28;;;;;;;0.70;0.70;;;4.40;99.90;;;;;;5027347;28;20184;-76
2023/03/15 00:45:54;;;;;;;0.98;0.98;;;4.30;99.90;;;;;;5017941;28;20181;-76
2023/03/15 00:48:19;;;;;;;1.23;1.13;;;4.30;99.90;;;;;;5028616;28;20192;-77
2023/03/15 00:50:45;;;;;;;1.20;1.20;;;4.20;99.90;;;;;;5025013;28;20205;-76
2023/03/15 00:53:10;;;;;;;1.38;1.30;;;4.20;99.90;;;;;;5025661;28;20667;-75
2023/03/15 00:55:36;;;;;;;0.70;0.70;;;4.30;99.90;;;;;;5027601;28;21096;-76
2023/03/15 00:58:01;;;;;;;1.42;1.00;;;4.30;99.90;;;;;;5029015;28;20173;-76
2023/03/15 01:00:27;;;;;;;1.38;1.30;;;4.30;99.90;;;;;;5027772;28;20229;-76
2023/03/15 01:02:53;;;;;;;1.15;1.00;;;4.10;99.90;;;;;;5028099;28;20212;-75
2023/03/15 01:05:19;;;;;;;1.20;1.20;;;4.10;99.90;;;;;;5033616;28;20234;-75
2023/03/15 01:07:45;;;;;;;1.10;1.10;;;4.00;99.90;;;;;;5025322;28;20192;-75
2023/03/15 01:10:12;;;;;;;1.08;1.08;;;4.10;99.90;;;;;;5031288;28;20200;-76
2023/03/15 01:12:38;;;;;;;2.15;1.30;;;4.00;99.90;;;;;;5026749;28;20578;-76
2023/03/15 01:15:05;;;;;;;1.30;1.17;;;4.00;99.90;;;;;;5030246;28;20188;-76
2023/03/15 01:17:31;;;;;;;1.40;1.40;;;4.00;99.90;;;;;;5028909;28;20195;-76
2023/03/15 01:19:58;;;;;;;2.58;1.55;;;4.00;99.90;;;;;;5028866;28;20217;-76
2023/03/15 01:22:24;;;;;;;1.10;1.10;;;3.90;99.90;;;;;;5028723;28;20210;-76
2023/03/15 01:24:49;;;;;;;1.02;1.02;;;3.80;99.90;;;;;;5024233;28;20668;-76
2023/03/15 01:27:15;;;;;;;1.70;1.60;;;3.80;99.90;;;;;;5031152;28;20659;-77
2023/03/15 01:29:40;;;;;;;1.20;1.10;;;3.80;99.90;;;;;;5036944;28;20642;-75
2023/03/15 01:32:06;;;;;;;2.42;1.63;;;3.70;99.90;;;;;;5030475;28;20200;-76
2023/03/15 01:34:32;;;;;;;1.45;1.35;;;3.60;99.90;;;;;;5034588;28;20195;-76
2023/03/15 01:36:58;;;;;;;2.10;1.50;;;3.60;99.90;;;;;;5028603;28;20612;-75
2023/03/15 01:39:24;;;;;;;1.42;1.38;;;3.50;99.90;;;;;;5026561;28;20260;-76
2023/03/15 01:41:49;;;;;;;1.40;1.23;;;3.50;99.90;;;;;;5022852;28;20203;-76
2023/03/15 01:44:17;;;;;;;2.03;1.92;;;3.60;99.90;;;;;;5029294;28;20180;-75
2023/03/15 01:46:43;;;;;;;1.65;1.55;;;3.70;99.90;;;;;;5023972;28;20238;-76
2023/03/15 01:49:33;;;;;;;1.20;1.20;;;3.70;99.90;;;;;;5025448;28;20537;-75
2023/03/15 01:52:03;;;;;;;1.60;1.50;;;3.60;99.90;;;;;;5025933;28;20236;-75
2023/03/15 01:54:31;;;;;;;1.60;1.50;;;3.60;99.90;;;;;;5028051;28;20180;-76
2023/03/15 01:57:04;;;;;;;1.70;1.60;;;3.50;99.90;;;;;;5033246;28;20655;-75
2023/03/15 01:59:34;;;;;;;1.95;1.70;;;3.60;99.90;;;;;;5030103;28;20206;-75
2023/03/15 02:02:00;;;;;;;2.08;1.90;;;3.60;99.90;;;;;;5028721;28;20191;-75
2023/03/15 02:04:40;;;;;;;1.60;1.50;;;3.50;99.90;;;;;;5034708;28;20255;-75
2023/03/15 02:07:08;;;;;;;1.77;1.67;;;3.60;99.90;;;;;;5029347;28;20228;-76
2023/03/15 02:09:48;;;;;;;2.38;1.40;;;3.60;99.90;;;;;;5033913;28;20601;-75
2023/03/15 02:12:14;;;;;;;2.40;1.75;;;3.60;99.90;;;;;;5025487;28;20294;-75
2023/03/15 02:14:40;;;;;;;1.90;1.60;;;3.60;99.90;;;;;;5032268;28;20192;-76
2023/03/15 02:17:06;;;;;;;4.07;1.90;;;3.60;99.90;;;;;;5029591;28;20187;-76
2023/03/15 02:20:04;;;;;;;2.70;2.35;;;3.50;99.90;;;;;;5032881;28;20200;-75
2023/03/15 02:22:44;;;;;;;2.40;1.80;;;3.40;99.90;;;;;;5018624;28;20187;-75
2023/03/15 02:25:17;;;;;;;2.10;1.90;;;3.50;99.90;;;;;;5030147;28;20663;-77
2023/03/15 02:27:43;;;;;;;4.95;2.13;;;3.60;99.90;;;;;;5025976;28;20291;-76
2023/03/15 02:30:10;;;;;;;2.28;2.10;;;3.60;99.90;;;;;;5027079;28;20200;-76
2023/03/15 02:32:36;;;;;;;3.05;2.17;;;3.70;99.90;;;;;;5026699;28;20543;-75
2023/03/15 02:35:01;;;;;;;2.90;2.03;;;3.70;99.90;;;;;;5030879;28;20223;-75
2023/03/15 02:37:27;;;;;;;1.67;1.67;;;3.60;99.90;;;;;;5034483;28;20185;-76
2023/03/15 02:39:53;;;;;;;2.30;2.10;;;3.60;99.90;;;;;;5030510;28;20193;-76
2023/03/15 02:42:19;;;;;;;2.67;1.85;;;3.60;99.90;;;;;;5023042;28;20188;-76
2023/03/15 02:44:48;;;;;;;2.38;2.17;;;3.50;99.90;;;;;;5030646;28;20715;-76
2023/03/15 02:47:17;;;;;;;2.17;2.08;;;3.50;99.90;;;;;;5032708;28;20213;-77
2023/03/15 02:49:46;;;;;;;4.13;2.70;;;3.40;99.90;;;;;;5034262;28;20197;-76
2023/03/15 02:52:12;;;;;;;4.97;2.13;;;3.20;99.90;;;;;;5031599;28;20212;-76
2023/03/15 02:54:42;;;;;;;2.53;2.00;;;3.30;99.90;;;;;;5033420;28;20263;-76
2023/03/15 02:57:11;;;;;;;3.08;2.00;;;3.20;99.90;;;;;;5024014;28;20169;-76
2023/03/15 02:59:37;;;;;;;2.13;1.90;;;3.20;99.90;;;;;;5034227;28;20691;-76
2023/03/15 03:02:03;;;;;;;2.60;2.05;;;3.20;99.90;;;;;;5027868;28;20181;-76
2023/03/15 03:04:29;;;;;;;3.78;2.40;;;3.10;99.90;;;;;;5029877;28;20197;-76
2023/03/15 03:06:54;;;;;;;3.80;2.50;;;3.00;99.90;;;;;;5030711;28;20177;-76
2023/03/15 03:09:20;;;;;;;3.97;2.00;;;3.00;99.90;;;;;;5036073;28;20183;-75
2023/03/15 03:11:46;;;;;;;3.55;2.20;;;2.90;99.90;;;;;;5030551;28;20215;-76
2023/03/15 03:14:12;;;;;;;3.90;2.22;;;2.70;99.90;;;;;;5031978;28;20176;-75
2023/03/15 03:16:39;;;;;;;3.80;2.28;;;2.60;99.90;;;;;;5030536;28;20180;-75
2023/03/15 03:19:04;;;;;;;6.00;2.30;;;2.50;99.90;;;;;;5029645;28;20197;-76
2023/03/15 03:21:30;;;;;;;5.47;2.42;;;2.40;99.90;;;;;;5026363;28;20216;-73
2023/03/15 03:23:56;;;;;;;4.18;1.95;;;2.40;99.90;;;;;;5027602;28;20211;-76
2023/03/15 03:26:26;;;;;;;5.60;3.77;;;2.30;99.90;;;;;;5040630;28;20321;-75
2023/03/15 03:28:52;;;;;;;7.60;2.80;;;2.20;99.90;;;;;;5030362;28;20184;-75
2023/03/15 03:31:23;;;;;;;4.38;2.70;;;2.20;99.90;;;;;;5022611;28;20212;-76
2023/03/15 03:33:50;;;;;;;4.88;2.25;;;2.20;99.90;;;;;;5024556;28;20535;-75
2023/03/15 03:36:15;;;;;;;2.97;2.10;;;2.10;99.90;;;;;;5029954;28;20179;-75
2023/03/15 03:38:42;;;;;;;7.37;2.50;;;2.10;99.90;;;;;;5022862;28;20552;-76
2023/03/15 03:41:10;;;;;;;7.27;2.60;;;2.00;99.90;;;;;;5031293;28;20287;-75
2023/03/15 03:43:36;;;;;;;6.77;2.57;;;1.90;99.90;;;;;;5029623;28;20221;-75
2023/03/15 03:46:02;;;;;;;5.50;2.40;;;1.90;99.90;;;;;;5030884;28;20259;-75
2023/03/15 03:48:28;;;;;;;2.67;2.20;;;1.90;99.90;;;;;;5027744;28;20570;-75
2023/03/15 03:50:54;;;;;;;4.23;2.57;;;1.80;99.90;;;;;;5025446;28;20197;-75
2023/03/15 03:53:19;;;;;;;3.90;2.22;;;1.80;99.90;;;;;;5030214;28;20191;-75
2023/03/15 03:55:45;;;;;;;5.53;2.10;;;1.80;99.90;;;;;;5035107;28;20669;-75
2023/03/15 03:58:11;;;;;;;3.67;2.17;;;1.80;99.90;;;;;;5027086;28;20179;-74
2023/03/15 04:00:36;;;;;;;3.10;2.43;;;1.70;99.90;;;;;;5026730;28;20201;-75
2023/03/15 04:03:02;;;;;;;5.20;2.38;;;1.70;99.90;;;;;;5024009;28;20169;-75
2023/03/15 04:05:28;;;;;;;5.73;2.63;;;1.80;99.90;;;;;;5027601;28;20542;-75
2023/03/15 04:07:53;;;;;;;5.65;2.20;;;1.70;99.90;;;;;;5030324;28;20225;-75
2023/03/15 04:10:25;;;;;;;6.88;2.30;;;1.80;99.90;;;;;;5023992;28;20212;-74
2023/03/15 04:12:52;;;;;;;2.73;2.00;;;1.70;99.90;;;;;;5031079;28;20212;-74
2023/03/15 04:15:18;;;;;;;4.97;2.17;;;1.60;99.90;;;;;;5028828;28;20177;-74
2023/03/15 04:17:44;;;;;;;2.93;2.03;;;1.60;99.90;;;;;;5030644;28;20177;-75
2023/03/15 04:20:11;;;;;;;4.57;2.93;;;1.80;99.90;;;;;;5032366;28;20616;-75
2023/03/15 04:22:38;;;;;;;3.67;2.80;;;2.00;99.90;;;;;;5033670;28;20189;-74
2023/03/15 04:25:04;;;;;;;5.60;2.83;;;1.90;99.90;;;;;;5029019;28;21286;-75
2023/03/15 04:27:30;;;;;;;5.20;3.17;;;1.90;99.90;;;;;;5026913;28;20235;-75
2023/03/15 04:29:56;;;;;;;4.17;2.50;;;1.90;99.90;;;;;;5030021;28;20208;-75
2023/03/15 04:32:21;;;;;;;7.77;3.13;;;1.90;99.90;;;;;;5030154;28;20215;-75
2023/03/15 04:34:50;;;;;;;3.27;2.37;;;2.00;99.90;;;;;;5024303;28;20867;-75
2023/03/15 04:37:17;;;;;;;4.50;2.53;;;1.90;99.90;;;;;;5029211;28;20266;-75
2023/03/15 04:39:42;;;;;;;5.00;2.88;;;1.90;99.90;;;;;;5017205;28;20304;-74
2023/03/15 04:42:08;;;;;;;4.05;2.60;;;2.00;99.90;;;;;;5026586;28;20719;-74
2023/03/15 04:44:34;;;;;;;5.25;3.03;;;2.10;99.90;;;;;;5026192;28;20200;-75
2023/03/15 04:46:59;;;;;;;8.52;3.45;;;2.20;99.90;;;;;;5030257;28;20183;-75
2023/03/15 04:49:25;;;;;;;5.18;3.80;;;2.40;99.90;;;;;;5027891;28;20188;-75
2023/03/15 04:51:50;;;;;;;2.83;2.58;;;2.30;99.90;;;;;;5022712;28;21266;-75
2023/03/15 04:54:16;;;;;;;4.82;2.70;;;2.30;99.90;;;;;;5034590;28;20230;-75
2023/03/15 04:56:42;;;;;;;3.45;2.38;;;2.30;99.90;;;;;;5027337;28;20265;-75
2023/03/15 04:59:07;;;;;;;3.05;2.72;;;2.20;99.90;;;;;;5025697;28;20675;-75
2023/03/15 05:01:33;;;;;;;3.47;2.90;;;2.20;99.90;;;;;;5028721;28;20585;-75
2023/03/15 05:03:59;;;;;;;5.18;3.15;;;2.30;99.90;;;;;;5027644;28;20199;-75
2023/03/15 05:06:24;;;;;;;2.85;2.63;;;2.40;99.90;;;;;;5028944;28;20188;-78
2023/03/15 05:08:50;;;;;;;4.18;2.40;;;2.50;99.90;;;;;;5028765;28;20195;-78
2023/03/15 05:11:16;;;;;;;3.30;3.00;;;2.40;99.90;;;;;;5034918;28;20207;-75
2023/03/15 05:13:42;;;;;;;6.47;3.42;;;2.40;99.90;;;;;;5025579;28;20193;-74
2023/03/15 05:16:07;;;;;;;4.53;3.22;;;2.40;99.90;;;;;;5028654;28;20639;-75
2023/03/15 05:18:33;;;;;;;3.85;3.17;;;2.30;99.90;;;;;;5028189;28;20703;-75
2023/03/15 05:20:58;;;;;;;5.85;3.42;;;2.40;99.90;;;;;;5028441;28;20627;-75
2023/03/15 05:23:24;;;;;;;10.30;3.30;;;2.50;99.90;;;;;;5028200;28;20188;-74
2023/03/15 05:25:54;;;;;;;3.75;3.10;;;2.50;99.90;;;;;;5029358;28;20201;-74
2023/03/15 05:28:22;;;;;;;4.05;3.40;;;2.40;99.90;;;;;;5027651;28;20472;-74
2023/03/15 05:30:48;;;;;;;6.00;3.53;;;2.40;99.90;;;;;;5025034;28;20192;-74
2023/03/15 05:33:14;;;;;;;8.68;3.75;;;2.40;99.90;;;;;;5027166;28;20285;-74
2023/03/15 05:35:41;;;;;;;5.78;3.28;;;2.50;99.90;;;;;;5022420;28;20285;-75
2023/03/15 05:38:06;;;;;;;5.72;3.83;;;2.50;99.90;;;;;;5031404;28;20173;-75
2023/03/15 05:40:32;;;;;;;5.38;3.67;;;2.40;99.90;;;;;;5021253;28;20628;-75
2023/03/15 05:42:58;;;;;;;5.07;4.07;;;2.40;99.90;;;;;;5026777;28;20187;-75
2023/03/15 05:45:23;;;;;;;7.75;4.32;;;2.30;99.90;;;;;;5034405;28;20243;-73
2023/03/15 05:47:49;;;;;;;5.27;4.03;;;2.30;99.90;;;;;;5029611;28;20242;-74
2023/03/15 05:50:15;;;;;;;8.37;4.57;;;2.20;99.90;;;;;;5025369;28;20204;-73
2023/03/15 05:52:41;;;;;;;5.63;3.87;;;2.00;99.90;;;;;;5031665;28;20208;-74
2023/03/15 05:55:07;;;;;;;5.17;4.67;;;2.00;99.90;;;;;;5025488;28;20258;-73
2023/03/15 05:57:32;;;;;;;7.53;4.30;;;2.00;99.90;;;;;;5022518;28;20219;-74
2023/03/15 05:59:58;;;;;;;13.10;5.37;;;1.90;99.90;;;;;;5019504;28;20292;-72
2023/03/15 06:02:23;;;;;;;7.43;4.87;;;1.90;99.90;;;;;;5028969;28;20192;-73
2023/03/15 06:04:49;;;;;;;5.70;3.95;;;2.00;99.90;;;;;;5027408;28;20207;-73
2023/03/15 06:07:15;;;;;;;7.57;5.27;;;1.90;99.90;;;;;;5024364;28;20183;-77
2023/03/15 06:09:40;;;;;;;3.83;3.07;;;1.90;99.90;;;;;;5022680;28;20574;-74
2023/03/15 06:12:06;;;;;;;6.63;4.70;;;1.90;99.90;;;;;;5023936;28;20201;-76
2023/03/15 06:14:31;;;;;;;6.53;5.00;;;1.90;99.90;;;;;;5030467;28;20648;-73
2023/03/15 06:16:57;;;;;;;7.73;5.50;;;1.90;99.90;;;;;;5022862;28;20189;-74
2023/03/15 06:19:22;;;;;;;5.20;3.80;;;2.00;99.90;;;;;;5023518;28;20338;-72
2023/03/15 06:21:49;;;;;;;4.80;4.30;;;2.00;99.90;;;;;;5023452;28;20192;-72
2023/03/15 06:24:14;;;;;;;7.63;5.30;;;2.10;99.90;;;;;;5030321;28;20180;-72
2023/03/15 06:26:40;;;;;;;14.67;4.47;;;2.10;99.90;;;;;;5026395;28;20270;-72
2023/03/15 06:29:06;;;;;;;6.93;4.17;;;2.10;99.90;;;;;;5022223;28;20181;-72
2023/03/15 06:31:31;;;;;;;5.47;3.87;;;2.20;99.90;;;;;;5025199;28;20232;-73
2023/03/15 06:33:57;;;;;;;7.57;5.07;;;2.20;99.90;;;;;;5025480;28;20192;-72
2023/03/15 06:36:23;;;;;;;9.37;4.60;;;2.10;99.90;;;;;;5026670;28;20181;-72
2023/03/15 06:38:49;;;;;;;7.87;4.97;;;2.10;99.90;;;;;;5025302;28;20191;-73
2023/03/15 06:41:15;;;;;;;9.47;4.60;;;2.20;99.90;;;;;;5028775;28;20302;-73
2023/03/15 06:43:41;;;;;;;7.80;3.10;;;2.30;99.90;;;;;;5026652;28;20215;-75
2023/03/15 06:46:07;;;;;;;5.20;3.23;;;2.20;99.90;;;;;;5028472;28;20184;-75
2023/03/15 06:48:32;;;;;;;8.17;3.50;;;2.30;99.90;;;;;;5032436;28;20652;-76
2023/03/15 06:50:58;;;;;;;6.47;4.50;;;2.40;99.90;;;;;;5032519;28;20204;-76
2023/03/15 06:53:24;;;;;;;6.87;4.47;;;2.30;99.90;;;;;;5039111;28;20180;-74
2023/03/15 06:55:50;;;;;;;12.07;5.30;;;2.20;99.90;;;;;;5032899;28;20187;-75
2023/03/15 06:58:16;;;;;;;7.40;4.13;;;2.20;99.90;;;;;;5031933;28;20169;-74
2023/03/15 07:00:43;;;;;;;7.47;4.40;;;2.30;99.90;;;;;;5027732;28;20638;-78
2023/03/15 07:03:09;;;;;;;7.72;5.07;;;2.40;99.90;;;;;;5033611;28;20184;-74
2023/03/15 07:05:36;;;;;;;5.85;4.25;;;2.40;99.90;;;;;;5032822;28;20184;-75
2023/03/15 07:08:01;;;;;;;7.30;4.40;;;2.60;99.90;;;;;;5026506;28;20185;-74
2023/03/15 07:10:27;;;;;;;11.00;3.87;;;2.70;99.90;;;;;;5030829;28;20208;-73
2023/03/15 07:12:52;;;;;;;4.77;3.80;;;2.90;99.90;;;;;;5031346;28;20281;-75
2023/03/15 07:15:18;;;;;;;6.07;3.93;;;3.10;99.90;;;;;;5033134;28;20180;-76
2023/03/15 07:17:43;;;;;;;8.30;3.50;;;3.30;99.90;;;;;;5028065;28;20264;-74
2023/03/15 07:20:10;;;;;;;5.97;3.90;;;3.60;99.90;;;;;;5039923;28;20224;-76
2023/03/15 07:22:35;;;;;;;11.13;3.67;;;3.80;99.90;;;;;;5031229;28;20193;-74
2023/03/15 07:25:01;;;;;;;5.57;4.03;;;3.90;99.90;;;;;;5024942;28;20196;-73
2023/03/15 07:27:28;;;;;;;5.78;3.40;;;4.00;99.90;;;;;;5026119;28;20207;-72
2023/03/15 07:29:54;;;;;;;5.53;3.80;;;4.10;99.90;;;;;;5031688;28;20258;-73
2023/03/15 07:32:20;;;;;;;6.30;4.10;;;4.20;99.90;;;;;;5026061;28;20307;-72
2023/03/15 07:34:45;;;;;;;6.30;3.95;;;4.10;99.90;;;;;;5027827;28;20599;-72
2023/03/15 07:37:11;;;;;;;7.55;5.10;;;4.10;99.90;;;;;;5031988;28;20276;-73
2023/03/15 07:39:36;;;;;;;11.35;5.22;;;4.10;99.90;;;;;;5034432;28;20187;-72
2023/03/15 07:42:02;;;;;;;5.82;4.25;;;4.00;99.90;;;;;;5038056;28;20180;-72
2023/03/15 07:44:28;;;;;;;5.63;3.90;;;4.20;99.90;;;;;;5031378;28;20219;-72
2023/03/15 07:46:54;;;;;;;7.45;5.45;;;4.40;99.90;;;;;;5033636;28;20204;-72
2023/03/15 07:49:20;;;;;;;3.70;3.40;;;4.40;99.90;;;;;;5031226;28;20187;-72
2023/03/15 07:51:46;;;;;;;5.20;4.72;;;4.50;99.90;;;;;;5040209;28;20200;-73
2023/03/15 07:54:11;;;;;;;3.80;3.55;;;4.70;99.90;;;;;;5028224;28;20191;-72
2023/03/15 07:56:37;;;;;;;7.82;5.22;;;5.00;99.90;;;;;;5030837;28;20177;-72
2023/03/15 07:59:02;;;;;;;4.88;3.25;;;5.10;99.90;;;;;;5029728;28;20211;-72
2023/03/15 08:01:28;;;;;;;9.68;5.38;;;5.00;99.90;;;;;;5026864;28;20199;-71
2023/03/15 08:03:53;;;;;;;2.22;2.03;;;4.90;99.90;;;;;;5029623;28;20253;-72
2023/03/15 08:06:19;;;;;;;7.75;4.80;;;4.80;99.90;;;;;;5033258;28;20221;-72
2023/03/15 08:08:45;;;;;;;7.05;4.57;;;4.80;99.90;;;;;;5030463;28;20191;-76
2023/03/15 08:11:11;;;;;;;6.20;4.95;;;5.00;99.90;;;;;;5027426;28;20644;-76
2023/03/15 08:13:37;;;;;;;5.75;5.18;;;5.10;99.90;;;;;;5025723;28;20647;-74
2023/03/15 08:16:02;;;;;;;3.78;3.47;;;5.20;99.90;;;;;;5027515;28;20356;-74
2023/03/15 08:18:28;;;;;;;6.22;3.85;;;5.20;99.90;;;;;;5034925;28;20188;-75
2023/03/15 08:20:54;;;;;;;7.68;4.97;;;5.00;99.90;;;;;;5027113;28;20204;-76
2023/03/15 08:23:20;;;;;;;7.00;4.70;;;4.80;99.90;;;;;;5036344;28;20198;-75
2023/03/15 08:25:47;;;;;;;9.73;5.28;;;4.80;99.90;;;;;;5032392;28;20176;-75
2023/03/15 08:28:13;;;;;;;8.90;4.93;;;4.80;99.90;;;;;;5022997;28;20207;-75
2023/03/15 08:30:39;;;;;;;11.10;5.15;;;4.80;99.90;;;;;;5013998;28;20208;-77
2023/03/15 08:33:06;;;;;;;9.50;6.20;;;4.90;99.90;;;;;;5010325;28;20204;-77
2023/03/15 08:35:33;;;;;;;9.20;5.38;;;5.00;99.90;;;;;;5021824;28;20284;-76
2023/03/15 08:38:01;;;;;;;9.70;5.28;;;5.10;99.90;;;;;;5032910;28;20644;-78
2023/03/15 08:40:28;;;;;;;11.05;5.38;;;5.00;99.90;;;;;;5029198;28;20215;-78
2023/03/15 08:42:56;;;;;;;10.35;5.03;;;4.90;99.90;;;;;;5027357;28;20185;-77
2023/03/15 08:45:23;;;;;;;15.50;4.22;;;4.90;99.90;;;;;;5014529;28;20196;-77
2023/03/15 08:47:56;;;;;;;11.15;6.00;;;5.10;99.90;;;;;;5010032;28;20193;-77
2023/03/15 08:50:22;;;;;;;11.27;5.57;;;5.10;99.90;;;;;;5010669;28;20205;-77
2023/03/15 08:52:47;;;;;;;6.63;5.22;;;5.20;99.90;;;;;;5018628;28;20208;-75
2023/03/15 08:55:13;;;;;;;8.32;4.70;;;5.40;99.90;;;;;;5023392;28;20177;-77
2023/03/15 08:57:39;;;;;;;6.95;5.35;;;5.80;99.90;;;;;;5011441;28;20260;-76
2023/03/15 09:00:09;;;;;;;8.40;4.65;;;6.60;99.90;;;;;;5035524;28;20198;-77
2023/03/15 09:02:35;;;;;;;3.45;2.35;;;8.40;99.90;;;;;;5018068;28;20196;-78
2023/03/15 09:05:03;;;;;;;5.57;3.75;;;10.10;99.90;;;;;;5012681;28;20678;-76
2023/03/15 09:07:28;;;;;;;4.10;3.45;;;10.40;99.90;;;;;;5010999;28;20601;-76
2023/03/15 09:09:54;;;;;;;6.32;3.38;;;10.00;99.90;;;;;;5007601;28;20201;-76
2023/03/15 09:12:20;;;;;;;4.55;2.83;;;9.30;99.90;;;;;;5010092;28;20838;-76
2023/03/15 09:14:46;;;;;;;4.07;3.13;;;8.80;99.90;;;;;;5009039;28;20272;-76
2023/03/15 09:17:12;;;;;;;4.80;2.03;;;8.40;99.90;;;;;;5011652;28;20542;-75
2023/03/15 09:19:38;;;;;;;5.53;2.97;;;8.40;99.90;;;;;;5015612;28;20223;-75
2023/03/15 09:22:04;;;;;;;2.35;2.03;;;8.50;99.90;;;;;;5029531;28;20192;-76
2023/03/15 09:24:29;;;;;;;4.95;2.20;;;8.90;99.90;;;;;;5021981;28;20180;-76
2023/03/15 09:26:55;;;;;;;6.13;3.22;;;9.50;99.90;;;;;;5027528;28;20196;-76
2023/03/15 09:29:20;;;;;;;2.53;1.48;;;9.80;99.90;;;;;;5030911;28;20235;-77
2023/03/15 09:31:46;;;;;;;6.68;3.42;;;10.40;97.70;;;;;;5024463;28;20279;-78
2023/03/15 09:34:12;;;;;;;7.70;2.45;;;10.60;98.20;;;;;;5024485;28;20188;-79
2023/03/15 09:36:37;;;;;;;2.60;2.28;;;10.30;95.10;;;;;;5036658;28;20181;-80
2023/03/15 09:39:03;;;;;;;2.72;1.73;;;9.60;95.50;;;;;;5039110;28;20224;-79
2023/03/15 09:41:53;;;;;;;4.93;2.25;;;8.80;96.00;;;;;;5030427;28;20759;-79
2023/03/15 09:44:34;;;;;;;3.92;2.03;;;8.30;96.40;;;;;;5030917;28;20238;-79
2023/03/15 09:47:32;;;;;;;2.97;2.00;;;9.20;97.60;;;;;;5033876;28;20650;-78
2023/03/15 09:50:16;;;;;;;5.57;2.97;;;10.80;92.50;;;;;;5016668;28;20232;-80
2023/03/15 09:52:57;;;;;;;3.17;1.52;;;12.70;88.70;;;;;;5013454;28;20204;-79
2023/03/15 09:55:25;;;;;;;3.63;1.85;;;14.50;79.50;;;;;;5011879;28;20184;-77
2023/03/15 09:58:03;;;;;;;1.77;1.52;;;16.00;72.90;;;;;;5009884;28;20209;-76
2023/03/15 10:00:43;;;;;;;6.55;2.88;;;16.70;66.60;;;;;;5009276;28;20767;-78
2023/03/15 10:03:34;;;;;;;2.90;1.77;;;17.10;62.90;;;;;;5011123;28;20207;-76
2023/03/15 10:06:15;;;;;;;1.80;1.70;;;17.60;59.10;;;;;;5010280;28;20565;-78
2023/03/15 10:08:41;;;;;;;4.15;2.25;;;18.30;61.00;;;;;;5010241;28;20197;-77
2023/03/15 10:11:33;;;;;;;3.53;1.80;;;19.00;56.30;;;;;;5012080;28;20271;-78
2023/03/15 10:14:10;;;;;;;2.33;1.65;;;19.10;55.20;;;;;;5011783;28;20606;-77
2023/03/15 10:16:41;;;;;;;1.58;1.30;;;19.20;54.30;;;;;;5011546;28;20181;-78
2023/03/15 10:19:32;;;;;;;4.30;1.77;;;19.70;50.30;;;;;;5019964;28;20195;-77
2023/03/15 10:22:14;;;;;;;3.42;1.45;;;19.20;52.70;;;;;;5015538;28;20186;-77
2023/03/15 10:24:53;;;;;;;1.65;1.40;;;19.70;49.30;;;;;;5013242;28;20196;-78
2023/03/15 10:27:38;;;;;;;1.30;1.20;;;18.20;50.80;;;;;;5014803;28;20196;-76
2023/03/15 10:30:24;;;;;;;1.92;1.38;;;17.80;50.80;;;;;;5015984;28;20205;-77
2023/03/15 10:33:25;;;;;;;2.15;1.25;;;17.10;51.80;;;;;;5018365;28;20226;-79
2023/03/15 10:35:50;;;;;;;3.58;1.38;;;17.20;53.20;;;;;;5017320;28;20188;-75
2023/03/15 10:38:21;;;;;;;3.58;1.63;;;17.20;51.20;;;;;;5022168;28;20180;-76
2023/03/15 10:40:47;;;;;;;1.75;1.27;;;15.90;52.30;;;;;;5024121;28;20231;-77
2023/03/15 10:43:13;;;;;;;1.65;1.55;;;14.50;54.60;;;;;;5026314;28;20191;-76
2023/03/15 10:45:39;;;;;;;1.90;1.33;;;13.70;55.10;;;;;;5021126;28;20196;-75
2023/03/15 10:48:04;;;;;;;1.35;1.08;;;13.40;57.20;;;;;;5018590;28;20185;-77
2023/03/15 10:50:32;;;;;;;1.95;1.15;;;13.10;56.80;;;;;;5015322;28;20215;-77
2023/03/15 10:53:01;;;;;;;2.05;1.23;;;12.60;58.70;;;;;;5019200;28;20660;-76
2023/03/15 10:55:35;;;;;;;2.33;1.30;;;13.80;57.60;;;;;;5020732;28;20184;-79
2023/03/15 10:58:26;;;;;;;2.40;1.20;;;15.20;54.60;;;;;;5014958;28;20238;-78
2023/03/15 11:00:59;;;;;;;2.80;1.50;;;14.50;54.40;;;;;;5018834;28;20201;-77
2023/03/15 11:03:25;;;;;;;1.73;1.48;;;13.30;56.50;;;;;;5021687;28;20662;-77
2023/03/15 11:05:53;;;;;;;2.28;1.67;;;12.80;56.80;;;;;;5018326;28;20187;-77
2023/03/15 11:08:21;;;;;;;5.22;1.50;;;12.50;57.90;;;;;;5018752;28;20558;-76
2023/03/15 11:10:56;;;;;;;1.70;1.27;;;13.90;57.10;;;;;;5013544;28;20255;-77
2023/03/15 11:13:25;;;;;;;3.15;1.42;;;15.90;53.30;;;;;;5023204;28;20196;-77
2023/03/15 11:16:02;;;;;;;1.88;1.38;;;17.40;51.20;;;;;;5022199;28;20185;-77
2023/03/15 11:18:45;;;;;;;2.88;1.08;;;18.70;49.00;;;;;;5028520;28;20791;-77
2023/03/15 11:21:13;;;;;;;2.50;1.30;;;19.10;47.50;;;;;;5027667;28;20207;-76
2023/03/15 11:23:46;;;;;;;4.20;1.63;;;18.90;47.40;;;;;;5025752;28;20181;-77
2023/03/15 11:26:24;;;;;;;2.40;1.17;;;19.20;47.70;;;;;;5018430;28;20208;-76
2023/03/15 11:28:52;;;;;;;2.15;1.27;;;19.70;46.40;;;;;;5023907;28;20551;-77
2023/03/15 11:31:25;;;;;;;4.00;2.42;;;19.80;46.70;;;;;;5024366;28;20216;-78
2023/03/15 11:34:12;;;;;;;2.97;1.40;;;19.50;47.90;;;;;;5021672;28;20196;-76
2023/03/15 11:36:42;;;;;;;2.85;1.90;;;19.50;49.50;;;;;;5025470;28;20615;-75
2023/03/15 11:39:18;;;;;;;4.85;1.65;;;19.30;48.40;;;;;;5017452;28;20173;-76
2023/03/15 11:41:53;;;;;;;3.17;2.30;;;18.80;49.20;;;;;;5028578;28;20208;-76
2023/03/15 11:44:49;;;;;;;2.75;2.25;;;18.20;50.80;;;;;;5024854;28;20189;-76
2023/03/15 11:47:33;;;;;;;2.55;1.75;;;17.40;50.80;;;;;;5017542;28;20205;-75
2023/03/15 11:49:59;;;;;;;4.10;1.88;;;16.40;51.90;;;;;;5026594;28;20213;-75
2023/03/15 11:52:27;;;;;;;3.28;1.52;;;15.80;54.00;;;;;;5025976;28;20295;-75
2023/03/15 11:54:59;;;;;;;5.75;1.88;;;15.60;54.90;;;;;;5019993;28;20228;-76
2023/03/15 11:57:27;;;;;;;2.33;2.00;;;16.30;54.00;;;;;;5021008;28;20188;-76
2023/03/15 11:59:54;;;;;;;3.88;2.30;;;17.50;52.20;;;;;;5029905;28;20661;-75
2023/03/15 12:02:20;;;;;;;3.13;1.70;;;18.50;50.20;;;;;;5018080;28;20197;-75
2023/03/15 12:04:48;;;;;;;4.82;1.60;;;18.00;48.90;;;;;;5024127;28;20188;-75
2023/03/15 12:07:17;;;;;;;2.85;1.30;;;18.30;50.50;;;;;;5020580;28;20235;-75
2023/03/15 12:09:54;;;;;;;3.20;1.63;;;18.20;49.80;;;;;;5018320;28;20247;-75
2023/03/15 12:12:25;;;;;;;0.95;0.95;;;17.80;49.70;;;;;;5027858;28;20299;-75
2023/03/15 12:15:34;;;;;;;3.53;1.25;;;16.90;50.60;;;;;;5018988;28;20196;-75
2023/03/15 12:18:05;;;;;;;1.88;1.15;;;15.90;50.90;;;;;;5017050;28;20279;-75
2023/03/15 12:20:37;;;;;;;2.38;1.27;;;15.00;51.80;;;;;;5017378;28;20559;-75
2023/03/15 12:23:18;;;;;;;3.08;1.65;;;14.10;53.40;;;;;;5021715;28;20185;-75
2023/03/15 12:26:06;;;;;;;2.67;1.00;;;14.00;53.40;;;;;;5027664;28;20275;-75
2023/03/15 12:28:44;;;;;;;3.08;1.45;;;14.30;55.30;;;;;;5030582;28;20176;-77
2023/03/15 12:31:13;;;;;;;3.33;0.90;;;15.00;53.50;;;;;;5033732;28;20212;-77
2023/03/15 12:33:53;;;;;;;1.70;1.33;;;16.80;50.20;;;;;;5021765;28;20177;-77
2023/03/15 12:36:36;;;;;;;1.52;1.40;;;17.20;48.20;;;;;;5022986;28;20233;-77
2023/03/15 12:39:38;;;;;;;2.92;1.45;;;18.00;48.00;;;;;;5023405;28;20238;-80
2023/03/15 12:42:04;;;;;;;1.38;1.25;;;19.50;46.80;;;;;;5024618;28;20200;-77
2023/03/15 12:44:32;;;;;;;1.23;0.95;;;20.20;45.80;;;;;;5025768;28;20266;-78
2023/03/15 12:47:06;;;;;;;2.15;1.38;;;19.90;45.20;;;;;;5020738;28;20252;-78
2023/03/15 12:49:33;;;;;;;1.55;0.70;;;18.60;45.50;;;;;;5033618;28;20271;-78
2023/03/15 12:52:34;;;;;;;1.90;1.13;;;17.20;47.00;;;;;;5025540;28;20208;-79
2023/03/15 12:55:12;;;;;;;2.50;1.42;;;16.50;49.30;;;;;;5028259;28;20191;-78
2023/03/15 12:57:46;;;;;;;2.90;1.20;;;17.00;49.70;;;;;;5014081;28;21025;-79
2023/03/15 13:00:26;;;;;;;1.30;1.00;;;16.90;48.10;;;;;;5026295;28;20203;-79
2023/03/15 13:03:03;;;;;;;2.03;1.23;;;15.80;48.40;;;;;;5026152;28;20857;-82